createdAt,value
2019-06-04T00:00:15.236Z,4.70
2019-06-04T00:05:20.709Z,4.67
2019-06-04T00:10:26.045Z,4.47
2019-06-04T00:15:31.341Z,4.17
2019-06-04T00:20:36.625Z,4.20
2019-06-04T00:25:41.847Z,4.30
2019-06-04T00:30:47.340Z,4.30
2019-06-04T00:35:52.557Z,4.62
2019-06-04T00:40:58.823Z,4.53
2019-06-04T00:46:05.293Z,4.60
2019-06-04T00:51:11.480Z,4.33
2019-06-04T00:56:16.814Z,4.85
2019-06-04T01:01:22.056Z,4.60
2019-06-04T01:06:27.676Z,4.75
2019-06-04T01:11:34.029Z,5.50
2019-06-04T01:16:40.308Z,4.30
2019-06-04T01:21:45.562Z,4.20
2019-06-04T01:26:50.982Z,4.33
2019-06-04T01:32:10.005Z,4.37
2019-06-04T01:37:04.315Z,4.57
2019-06-04T01:42:11.372Z,4.40
2019-06-04T01:47:16.998Z,4.57
2019-06-04T01:52:23.385Z,4.70
2019-06-04T01:57:29.688Z,5.70
2019-06-04T02:02:34.908Z,6.22
2019-06-04T02:07:40.135Z,10.90
2019-06-04T02:12:45.423Z,14.15
2019-06-04T02:17:51.060Z,11.00
2019-06-04T02:22:57.503Z,13.25
2019-06-04T02:28:02.814Z,14.80
2019-06-04T02:33:13.541Z,18.03
2019-06-04T02:38:15.520Z,15.95
2019-06-04T02:43:21.388Z,16.73
2019-06-04T02:48:27.840Z,17.20
2019-06-04T02:53:33.717Z,17.97
2019-06-04T02:58:41.764Z,20.02
2019-06-04T03:03:47.182Z,22.73
2019-06-04T03:08:53.570Z,25.40
2019-06-04T03:13:59.125Z,21.52
2019-06-04T03:19:04.575Z,18.93
2019-06-04T03:24:10.767Z,17.27
2019-06-04T03:29:17.656Z,20.40
2019-06-04T03:34:25.585Z,20.77
2019-06-04T03:39:30.455Z,19.60
2019-06-04T03:44:36.030Z,19.80
2019-06-04T04:10:25.881Z,21.60
2019-06-04T04:15:31.147Z,24.18
2019-06-04T04:20:36.504Z,21.57
2019-06-04T04:25:41.779Z,23.57
2019-06-04T04:30:47.107Z,22.13
2019-06-04T04:35:52.749Z,23.50
2019-06-04T04:40:59.731Z,21.80
2019-06-04T04:46:07.220Z,20.33
2019-06-04T04:51:12.508Z,18.62
2019-06-04T04:56:19.320Z,17.85
2019-06-04T05:01:25.819Z,17.07
2019-06-04T05:06:33.084Z,15.33
2019-06-04T05:11:38.500Z,14.80
2019-06-04T05:16:45.992Z,13.53
2019-06-04T05:21:51.638Z,13.53
2019-06-04T05:26:57.111Z,13.32
2019-06-04T05:32:03.066Z,13.65
2019-06-04T05:37:08.584Z,13.43
2019-06-04T05:42:13.817Z,13.60
2019-06-04T05:47:19.575Z,12.95
2019-06-04T05:52:24.965Z,13.43
2019-06-04T05:57:31.041Z,13.67
2019-06-04T06:02:36.426Z,13.08
2019-06-04T06:07:41.920Z,13.30
2019-06-04T06:12:47.620Z,12.93
2019-06-04T06:17:53.143Z,12.90
2019-06-04T06:23:10.925Z,12.68
2019-06-04T06:28:06.355Z,12.00
2019-06-04T06:33:11.990Z,11.70
2019-06-04T06:38:17.553Z,11.60
2019-06-04T06:43:22.915Z,12.20
2019-06-04T06:48:28.915Z,12.60
2019-06-04T06:53:35.845Z,12.55
2019-06-04T06:58:42.557Z,13.62
2019-06-04T07:03:48.042Z,13.58
2019-06-04T07:08:55.219Z,12.95
2019-06-04T07:14:02.675Z,13.38
2019-06-04T07:19:08.093Z,12.90
2019-06-04T07:24:13.854Z,13.00
2019-06-04T07:29:19.193Z,11.12
2019-06-04T07:34:24.815Z,9.95
2019-06-04T07:39:30.678Z,9.65
2019-06-04T07:44:36.872Z,7.78
2019-06-04T07:49:42.392Z,7.70
2019-06-04T07:54:47.711Z,7.30
2019-06-04T07:59:53.029Z,7.50
2019-06-04T08:04:58.556Z,8.45
2019-06-04T08:10:04.075Z,8.10
2019-06-04T08:15:09.481Z,7.70
2019-06-04T08:20:15.142Z,6.87
2019-06-04T08:25:20.609Z,5.40
2019-06-04T08:30:26.026Z,4.50
2019-06-04T08:35:31.614Z,4.22
2019-06-04T08:40:37.653Z,3.90
2019-06-04T08:45:43.895Z,3.90
2019-06-04T08:50:51.882Z,3.53
2019-06-04T08:55:58.379Z,3.73
2019-06-04T09:01:03.935Z,3.30
2019-06-04T09:06:09.774Z,3.35
2019-06-04T09:11:15.325Z,3.22
2019-06-04T09:16:20.849Z,3.70
2019-06-04T09:21:26.253Z,3.10
2019-06-04T09:26:31.966Z,3.10
2019-06-04T09:31:37.178Z,3.15
2019-06-04T09:36:43.802Z,3.12
2019-06-04T09:41:50.302Z,3.65
2019-06-04T09:46:55.854Z,3.62
2019-06-04T09:52:01.320Z,3.30
2019-06-04T09:57:06.899Z,2.95
2019-06-04T10:02:12.437Z,3.50
2019-06-04T10:07:17.826Z,3.30
2019-06-04T10:12:23.273Z,3.02
2019-06-04T10:17:28.877Z,3.03
2019-06-04T10:22:34.251Z,3.00
2019-06-04T10:27:39.633Z,3.10
2019-06-04T10:32:46.448Z,3.40
2019-06-04T10:37:52.902Z,3.20
2019-06-04T10:42:58.201Z,3.00
2019-06-04T10:48:03.422Z,3.00
2019-06-04T10:53:09.541Z,3.20
2019-06-04T10:58:14.808Z,3.33
2019-06-04T11:03:20.538Z,3.00
2019-06-04T11:08:45.579Z,3.40
2019-06-04T11:13:33.278Z,3.10
2019-06-04T11:18:38.496Z,3.40
2019-06-04T11:23:44.395Z,3.10
2019-06-04T11:28:50.881Z,2.85
2019-06-04T11:34:19.838Z,2.97
2019-06-04T11:39:17.779Z,2.67
2019-06-04T11:44:12.927Z,3.42
2019-06-04T11:49:19.124Z,2.80
2019-06-04T11:54:25.609Z,2.72
2019-06-04T11:59:32.728Z,2.60
2019-06-04T12:04:38.448Z,2.80
2019-06-04T12:09:43.855Z,2.83
2019-06-04T12:14:49.342Z,2.60
2019-06-04T12:19:55.750Z,2.53
2019-06-04T12:25:05.101Z,2.50
2019-06-04T12:30:09.225Z,2.80
2019-06-04T12:35:14.747Z,3.00
2019-06-04T12:40:20.648Z,2.80
2019-06-04T12:45:26.232Z,2.90
2019-06-04T12:50:33.949Z,2.92
2019-06-04T12:55:40.018Z,2.87
2019-06-04T13:00:46.017Z,2.90
2019-06-04T13:05:53.295Z,2.70
2019-06-04T13:11:00.868Z,3.00
2019-06-04T13:16:06.755Z,2.98
2019-06-04T13:21:14.527Z,2.60
2019-06-04T13:26:21.073Z,2.77
2019-06-04T13:31:26.536Z,2.92
2019-06-04T13:36:31.785Z,2.80
2019-06-04T13:41:37.176Z,2.92
2019-06-04T13:46:42.623Z,2.50
2019-06-04T13:51:48.495Z,2.60
2019-06-04T13:56:54.787Z,2.67
2019-06-04T14:02:00.249Z,2.52
2019-06-04T14:07:07.056Z,2.60
2019-06-04T14:12:14.179Z,2.20
2019-06-04T14:17:19.758Z,2.07
2019-06-04T14:22:25.143Z,2.02
2019-06-04T14:27:30.515Z,2.10
2019-06-04T14:32:36.098Z,2.15
2019-06-04T14:37:41.950Z,2.00
2019-06-04T14:42:47.241Z,2.00
2019-06-04T14:47:52.849Z,2.30
2019-06-04T14:52:58.322Z,2.30
2019-06-04T14:58:03.872Z,2.10
2019-06-04T15:03:09.386Z,2.10
2019-06-04T15:08:16.588Z,2.10
2019-06-04T15:13:22.209Z,2.00
2019-06-04T15:18:27.643Z,1.85
2019-06-04T15:23:33.872Z,1.62
2019-06-04T15:28:42.581Z,1.90
2019-06-04T15:33:51.632Z,1.77
2019-06-04T15:38:57.088Z,1.70
2019-06-04T15:44:05.292Z,2.10
2019-06-04T15:49:11.432Z,2.20
2019-06-04T15:54:18.090Z,2.10
2019-06-04T15:59:24.934Z,1.83
2019-06-04T16:04:31.693Z,1.90
2019-06-04T16:09:37.120Z,1.73
2019-06-04T16:14:42.529Z,1.80
2019-06-04T16:19:47.833Z,2.00
2019-06-04T16:24:53.248Z,2.17
2019-06-04T16:29:58.453Z,1.95
2019-06-04T16:35:04.303Z,1.90
2019-06-04T16:40:10.130Z,2.10
2019-06-04T16:45:15.634Z,2.10
2019-06-04T16:50:21.047Z,2.57
2019-06-04T16:55:28.170Z,2.67
2019-06-04T17:00:34.037Z,2.60
2019-06-04T17:05:39.689Z,2.00
2019-06-04T17:10:45.580Z,2.20
2019-06-04T17:15:51.777Z,2.33
2019-06-04T17:20:59.426Z,2.17
2019-06-04T17:26:07.095Z,2.07
2019-06-04T17:31:12.236Z,1.90
2019-06-04T17:36:18.762Z,2.00
2019-06-04T17:41:25.044Z,2.03
2019-06-04T17:46:32.292Z,1.77
2019-06-04T17:51:43.707Z,1.90
2019-06-04T17:56:50.881Z,1.82
2019-06-04T18:01:57.125Z,2.17
2019-06-04T18:07:03.340Z,1.90
2019-06-04T18:12:08.683Z,1.90
2019-06-04T18:17:14.418Z,2.00
2019-06-04T18:22:19.806Z,1.93
2019-06-04T18:27:25.294Z,2.00
2019-06-04T18:32:31.128Z,2.23
2019-06-04T18:37:37.084Z,2.45
2019-06-04T18:42:44.608Z,2.80
2019-06-04T18:47:51.465Z,2.70
2019-06-04T18:52:57.294Z,2.60
2019-06-04T18:58:03.007Z,2.27
2019-06-04T19:03:08.977Z,2.70
2019-06-04T19:08:14.274Z,2.42
2019-06-04T19:13:19.809Z,4.85
2019-06-04T19:18:25.643Z,4.22
2019-06-04T19:23:31.164Z,3.25
2019-06-04T19:28:37.170Z,3.35
2019-06-04T19:33:42.946Z,2.72
2019-06-04T19:38:48.411Z,2.52
2019-06-04T19:43:54.338Z,2.80
2019-06-04T19:49:02.448Z,2.87
2019-06-04T19:54:08.604Z,3.10
2019-06-04T19:59:14.011Z,2.90
2019-06-04T20:04:19.668Z,2.70
2019-06-04T20:09:25.145Z,2.70
2019-06-04T20:19:00.702Z,2.87
2019-06-04T20:19:39.174Z,2.67
2019-06-04T20:24:46.655Z,2.72
2019-06-04T20:29:52.039Z,3.10
2019-06-04T20:34:57.368Z,2.90
2019-06-04T20:40:02.847Z,2.90
2019-06-04T20:45:13.798Z,3.05
2019-06-04T20:50:15.793Z,3.20
2019-06-04T20:55:21.670Z,2.83
2019-06-04T21:00:27.073Z,2.60
2019-06-04T21:05:32.670Z,2.43
2019-06-04T21:10:38.711Z,2.17
2019-06-04T21:15:45.446Z,2.00
2019-06-04T21:20:52.165Z,2.00
2019-06-04T21:25:58.880Z,1.95
2019-06-04T21:31:04.352Z,1.98
2019-06-04T21:36:10.707Z,2.10
2019-06-04T21:41:16.056Z,1.90
2019-06-04T21:46:21.872Z,2.00
2019-06-04T21:51:27.573Z,2.00
2019-06-04T21:56:33.157Z,2.00
2019-06-04T22:01:39.471Z,2.10
2019-06-04T22:06:44.803Z,2.10
2019-06-04T22:11:50.524Z,2.00
2019-06-04T22:16:56.940Z,2.00
2019-06-04T22:22:02.336Z,2.00
2019-06-04T22:27:07.914Z,2.27
2019-06-04T22:32:13.220Z,2.15
2019-06-04T22:37:18.583Z,2.10
2019-06-04T22:42:23.978Z,1.90
2019-06-04T22:47:29.732Z,2.30
2019-06-04T22:52:35.137Z,2.10
2019-06-04T22:57:40.441Z,2.10
2019-06-04T23:02:45.814Z,2.20
2019-06-04T23:07:52.046Z,2.10
2019-06-04T23:12:58.834Z,2.12
2019-06-04T23:18:08.042Z,2.20
2019-06-04T23:23:11.590Z,2.50
2019-06-04T23:28:21.083Z,2.50
2019-06-04T23:33:24.603Z,2.42
2019-06-04T23:38:30.948Z,2.17
2019-06-04T23:43:36.350Z,2.37
2019-06-04T23:48:41.756Z,2.40
2019-06-04T23:53:47.529Z,2.60
2019-06-04T23:58:52.746Z,2.22
